< Typhoon 200015 2000 Season Typhoon 200017 >
Typhoon 200016 (WUKONG)
General InformationTrack Information on Google MapsDetailed Wind InformationList of All Images || NewsDisaster Info.ResourceGoogle EarthGE AnimationAtom FeedGeoJSON
Detalied Best Track (Time Zone = UTC)
Year Month Day Hour Lat. Long. Pressure (hPa) Wind (kt) Class Image Chart
2000 9 4 06 16.6 117.2 1000 0 2 Image Chart
2000 9 4 12 16.7 116.6 1000 0 2 Image Chart
2000 9 4 18 16.6 116.4 1000 0 2 Image Chart
2000 9 5 00 16.4 116.6 1000 0 2 Image Chart
2000 9 5 06 16.5 116.8 998 0 2 Image Chart
2000 9 5 12 16.9 117.2 996 0 2 Image Chart
2000 9 5 18 17.3 117.5 994 0 2 Image Chart
2000 9 6 00 17.9 117.6 992 35 3 Image Chart
2000 9 6 06 18.4 117.4 990 40 3 Image Chart
2000 9 6 12 18.7 117.0 985 50 4 Image Chart
2000 9 6 18 18.9 116.3 985 50 4 Image Chart
2000 9 7 00 19.0 115.8 980 55 4 Image Chart
2000 9 7 06 19.0 115.5 980 55 4 Image Chart
2000 9 7 12 19.0 115.2 975 60 4 Image Chart
2000 9 7 18 19.0 114.7 970 65 5 Image Chart
2000 9 8 00 18.9 114.2 960 70 5 Image Chart
2000 9 8 06 18.8 113.4 955 75 5 Image Chart
2000 9 8 12 18.8 112.5 955 75 5 Image Chart
2000 9 8 18 18.6 111.6 960 70 5 Image Chart
2000 9 9 00 18.4 110.5 960 70 5 Image Chart
2000 9 9 06 18.1 109.7 970 60 4 Image Chart
2000 9 9 12 18.3 108.8 975 55 4 Image Chart
2000 9 9 18 18.5 107.8 980 50 4 Image Chart
2000 9 10 00 18.3 106.8 985 50 4 Image Chart
2000 9 10 06 17.9 105.6 990 45 3 Image Chart
2000 9 10 12 17.9 104.0 996 0 2 Image Chart
2000 9 10 18 17.9 102.5 1000 0 2 Image Chart
Japan Meteorological Agency Best Track Data | Correction Date : 2001-12-21
< Typhoon 200015 2000 Season Typhoon 200017 >

Help